sensor_id;sensor_type;location;lat;lon;timestamp;temperature;humidity
56336;DHT22;42241;53.510;10.170;2022-10-22T00:02:10;15.00;99.90
56336;DHT22;42241;53.510;10.170;2022-10-22T00:04:37;15.00;99.90
56336;DHT22;42241;53.510;10.170;2022-10-22T00:07:03;15.00;99.90
56336;DHT22;42241;53.510;10.170;2022-10-22T00:09:28;15.00;99.90
56336;DHT22;42241;53.510;10.170;2022-10-22T00:11:54;15.00;99.90
56336;DHT22;42241;53.510;10.170;2022-10-22T00:14:19;15.00;99.90
56336;DHT22;42241;53.510;10.170;2022-10-22T00:16:45;15.00;99.90
56336;DHT22;42241;53.510;10.170;2022-10-22T00:19:11;15.00;99.90
56336;DHT22;42241;53.510;10.170;2022-10-22T00:21:37;15.00;99.90
56336;DHT22;42241;53.510;10.170;2022-10-22T00:24:03;15.00;99.90
56336;DHT22;42241;53.510;10.170;2022-10-22T00:26:29;15.00;99.90
56336;DHT22;42241;53.510;10.170;2022-10-22T00:28:54;15.00;99.90
56336;DHT22;42241;53.510;10.170;2022-10-22T00:31:20;15.00;99.90
56336;DHT22;42241;53.510;10.170;2022-10-22T00:33:46;15.00;99.90
56336;DHT22;42241;53.510;10.170;2022-10-22T00:36:12;15.00;99.90
56336;DHT22;42241;53.510;10.170;2022-10-22T00:38:38;15.00;99.90
56336;DHT22;42241;53.510;10.170;2022-10-22T00:41:03;15.00;99.90
56336;DHT22;42241;53.510;10.170;2022-10-22T00:43:29;15.00;99.90
56336;DHT22;42241;53.510;10.170;2022-10-22T00:45:55;15.00;99.90
56336;DHT22;42241;53.510;10.170;2022-10-22T00:48:21;15.00;99.90
56336;DHT22;42241;53.510;10.170;2022-10-22T00:50:55;15.00;99.90
56336;DHT22;42241;53.510;10.170;2022-10-22T00:53:23;15.00;99.90
56336;DHT22;42241;53.510;10.170;2022-10-22T00:55:51;15.00;99.90
56336;DHT22;42241;53.510;10.170;2022-10-22T00:58:17;15.00;99.90
56336;DHT22;42241;53.510;10.170;2022-10-22T01:00:45;15.00;99.90
56336;DHT22;42241;53.510;10.170;2022-10-22T01:03:11;15.00;99.90
56336;DHT22;42241;53.510;10.170;2022-10-22T01:05:41;15.10;99.90
56336;DHT22;42241;53.510;10.170;2022-10-22T01:08:07;15.10;99.90
56336;DHT22;42241;53.510;10.170;2022-10-22T01:15:36;15.10;99.90
56336;DHT22;42241;53.510;10.170;2022-10-22T01:25:36;15.10;99.90
56336;DHT22;42241;53.510;10.170;2022-10-22T01:30:36;15.00;99.90
56336;DHT22;42241;53.510;10.170;2022-10-22T01:33:02;15.00;99.90
56336;DHT22;42241;53.510;10.170;2022-10-22T01:35:47;15.00;99.90
56336;DHT22;42241;53.510;10.170;2022-10-22T01:38:15;15.00;99.90
56336;DHT22;42241;53.510;10.170;2022-10-22T01:40:41;15.00;99.90
56336;DHT22;42241;53.510;10.170;2022-10-22T01:43:07;15.00;99.90
56336;DHT22;42241;53.510;10.170;2022-10-22T01:45:34;14.90;99.90
56336;DHT22;42241;53.510;10.170;2022-10-22T02:03:38;14.60;99.90
56336;DHT22;42241;53.510;10.170;2022-10-22T02:06:07;14.60;99.90
56336;DHT22;42241;53.510;10.170;2022-10-22T02:08:34;14.50;99.90
56336;DHT22;42241;53.510;10.170;2022-10-22T02:11:00;14.40;99.90
56336;DHT22;42241;53.510;10.170;2022-10-22T02:13:28;14.40;99.90
56336;DHT22;42241;53.510;10.170;2022-10-22T02:15:54;14.40;99.90
56336;DHT22;42241;53.510;10.170;2022-10-22T02:21:11;14.30;99.90
56336;DHT22;42241;53.510;10.170;2022-10-22T02:23:37;14.10;99.90
56336;DHT22;42241;53.510;10.170;2022-10-22T02:26:06;14.10;99.90
56336;DHT22;42241;53.510;10.170;2022-10-22T02:28:56;14.00;99.90
56336;DHT22;42241;53.510;10.170;2022-10-22T02:31:23;14.00;99.90
56336;DHT22;42241;53.510;10.170;2022-10-22T02:33:51;14.00;99.90
56336;DHT22;42241;53.510;10.170;2022-10-22T02:36:17;13.90;99.90
56336;DHT22;42241;53.510;10.170;2022-10-22T02:38:43;13.90;99.90
56336;DHT22;42241;53.510;10.170;2022-10-22T02:41:10;13.90;99.90
56336;DHT22;42241;53.510;10.170;2022-10-22T02:43:42;13.90;99.90
56336;DHT22;42241;53.510;10.170;2022-10-22T02:46:08;13.90;99.90
56336;DHT22;42241;53.510;10.170;2022-10-22T02:48:34;13.90;99.90
56336;DHT22;42241;53.510;10.170;2022-10-22T02:51:00;13.80;99.90
56336;DHT22;42241;53.510;10.170;2022-10-22T02:53:25;13.80;99.90
56336;DHT22;42241;53.510;10.170;2022-10-22T02:55:51;13.80;99.90
56336;DHT22;42241;53.510;10.170;2022-10-22T02:58:16;13.80;99.90
56336;DHT22;42241;53.510;10.170;2022-10-22T03:00:42;13.80;99.90
56336;DHT22;42241;53.510;10.170;2022-10-22T03:03:07;13.70;99.90
56336;DHT22;42241;53.510;10.170;2022-10-22T03:05:33;13.70;99.90
56336;DHT22;42241;53.510;10.170;2022-10-22T03:07:58;13.70;99.90
56336;DHT22;42241;53.510;10.170;2022-10-22T03:10:24;13.70;99.90
56336;DHT22;42241;53.510;10.170;2022-10-22T03:12:49;13.70;99.90
56336;DHT22;42241;53.510;10.170;2022-10-22T03:15:15;13.70;99.90
56336;DHT22;42241;53.510;10.170;2022-10-22T03:17:40;13.70;99.90
56336;DHT22;42241;53.510;10.170;2022-10-22T03:20:06;13.70;99.90
56336;DHT22;42241;53.510;10.170;2022-10-22T03:22:32;13.80;99.90
56336;DHT22;42241;53.510;10.170;2022-10-22T03:24:59;13.80;99.90
56336;DHT22;42241;53.510;10.170;2022-10-22T03:27:25;13.80;99.90
56336;DHT22;42241;53.510;10.170;2022-10-22T03:29:52;13.90;99.90
56336;DHT22;42241;53.510;10.170;2022-10-22T03:32:18;13.90;99.90
56336;DHT22;42241;53.510;10.170;2022-10-22T03:34:43;13.90;99.90
56336;DHT22;42241;53.510;10.170;2022-10-22T03:37:09;13.90;99.90
56336;DHT22;42241;53.510;10.170;2022-10-22T03:39:35;13.90;99.90
56336;DHT22;42241;53.510;10.170;2022-10-22T03:42:01;13.90;99.90
56336;DHT22;42241;53.510;10.170;2022-10-22T03:44:27;13.90;99.90
56336;DHT22;42241;53.510;10.170;2022-10-22T03:46:53;13.90;99.90
56336;DHT22;42241;53.510;10.170;2022-10-22T03:49:19;13.90;99.90
56336;DHT22;42241;53.510;10.170;2022-10-22T03:51:44;13.90;99.90
56336;DHT22;42241;53.510;10.170;2022-10-22T03:54:10;13.90;99.90
56336;DHT22;42241;53.510;10.170;2022-10-22T03:56:36;13.80;99.90
56336;DHT22;42241;53.510;10.170;2022-10-22T03:59:02;13.80;99.90
56336;DHT22;42241;53.510;10.170;2022-10-22T04:01:27;13.80;99.90
56336;DHT22;42241;53.510;10.170;2022-10-22T04:03:53;13.80;99.90
56336;DHT22;42241;53.510;10.170;2022-10-22T04:06:19;13.80;99.90
56336;DHT22;42241;53.510;10.170;2022-10-22T04:08:44;13.80;99.90
56336;DHT22;42241;53.510;10.170;2022-10-22T04:11:10;13.80;99.90
56336;DHT22;42241;53.510;10.170;2022-10-22T04:13:36;13.80;99.90
56336;DHT22;42241;53.510;10.170;2022-10-22T04:16:08;13.80;99.90
56336;DHT22;42241;53.510;10.170;2022-10-22T04:18:34;13.80;99.90
56336;DHT22;42241;53.510;10.170;2022-10-22T04:21:00;13.80;99.90
56336;DHT22;42241;53.510;10.170;2022-10-22T04:23:25;13.90;99.90
56336;DHT22;42241;53.510;10.170;2022-10-22T04:25:56;13.90;99.90
56336;DHT22;42241;53.510;10.170;2022-10-22T04:28:22;13.90;99.90
56336;DHT22;42241;53.510;10.170;2022-10-22T04:30:47;13.80;99.90
56336;DHT22;42241;53.510;10.170;2022-10-22T04:33:13;13.80;99.90
56336;DHT22;42241;53.510;10.170;2022-10-22T04:35:38;13.80;99.90
56336;DHT22;42241;53.510;10.170;2022-10-22T04:38:04;13.90;99.90
56336;DHT22;42241;53.510;10.170;2022-10-22T04:40:29;13.80;99.90
56336;DHT22;42241;53.510;10.170;2022-10-22T04:42:55;13.80;99.90
56336;DHT22;42241;53.510;10.170;2022-10-22T04:45:21;13.80;99.90
56336;DHT22;42241;53.510;10.170;2022-10-22T04:47:46;13.80;99.90
56336;DHT22;42241;53.510;10.170;2022-10-22T04:50:12;13.80;99.90
56336;DHT22;42241;53.510;10.170;2022-10-22T04:52:37;13.80;99.90
56336;DHT22;42241;53.510;10.170;2022-10-22T04:55:03;13.70;99.90
56336;DHT22;42241;53.510;10.170;2022-10-22T04:57:29;13.80;99.90
56336;DHT22;42241;53.510;10.170;2022-10-22T04:59:55;13.80;99.90
56336;DHT22;42241;53.510;10.170;2022-10-22T05:02:21;13.80;99.90
56336;DHT22;42241;53.510;10.170;2022-10-22T05:04:46;13.80;99.90
56336;DHT22;42241;53.510;10.170;2022-10-22T05:07:12;13.80;99.90
56336;DHT22;42241;53.510;10.170;2022-10-22T05:09:38;13.80;99.90
56336;DHT22;42241;53.510;10.170;2022-10-22T05:12:03;13.80;99.90
56336;DHT22;42241;53.510;10.170;2022-10-22T05:14:30;13.70;99.90
56336;DHT22;42241;53.510;10.170;2022-10-22T05:16:56;13.60;99.90
56336;DHT22;42241;53.510;10.170;2022-10-22T05:19:23;13.60;99.90
56336;DHT22;42241;53.510;10.170;2022-10-22T05:21:49;13.50;99.90
56336;DHT22;42241;53.510;10.170;2022-10-22T05:24:15;13.50;99.90
56336;DHT22;42241;53.510;10.170;2022-10-22T05:26:41;13.50;99.90
56336;DHT22;42241;53.510;10.170;2022-10-22T05:29:06;13.50;99.90
56336;DHT22;42241;53.510;10.170;2022-10-22T05:31:34;13.50;99.90
56336;DHT22;42241;53.510;10.170;2022-10-22T05:34:00;13.40;99.90
56336;DHT22;42241;53.510;10.170;2022-10-22T05:36:25;13.40;99.90
56336;DHT22;42241;53.510;10.170;2022-10-22T05:38:51;13.40;99.90
56336;DHT22;42241;53.510;10.170;2022-10-22T05:41:18;13.40;99.90
56336;DHT22;42241;53.510;10.170;2022-10-22T05:43:44;13.40;99.90
56336;DHT22;42241;53.510;10.170;2022-10-22T05:46:11;13.40;99.90
56336;DHT22;42241;53.510;10.170;2022-10-22T05:48:37;13.40;99.90
56336;DHT22;42241;53.510;10.170;2022-10-22T05:51:03;13.30;99.90
56336;DHT22;42241;53.510;10.170;2022-10-22T05:53:32;13.30;99.90
56336;DHT22;42241;53.510;10.170;2022-10-22T05:55:59;13.30;99.90
56336;DHT22;42241;53.510;10.170;2022-10-22T05:58:25;13.30;99.90
56336;DHT22;42241;53.510;10.170;2022-10-22T06:00:51;13.30;99.90
56336;DHT22;42241;53.510;10.170;2022-10-22T06:03:16;13.30;99.90
56336;DHT22;42241;53.510;10.170;2022-10-22T06:05:42;13.30;99.90
56336;DHT22;42241;53.510;10.170;2022-10-22T06:08:09;13.30;99.90
56336;DHT22;42241;53.510;10.170;2022-10-22T06:10:35;13.30;99.90
56336;DHT22;42241;53.510;10.170;2022-10-22T06:13:02;13.30;99.90
56336;DHT22;42241;53.510;10.170;2022-10-22T06:15:31;13.30;99.90
56336;DHT22;42241;53.510;10.170;2022-10-22T06:17:56;13.30;99.90
56336;DHT22;42241;53.510;10.170;2022-10-22T06:20:22;13.30;99.90
56336;DHT22;42241;53.510;10.170;2022-10-22T06:22:47;13.30;99.90
56336;DHT22;42241;53.510;10.170;2022-10-22T06:25:13;13.20;99.90
56336;DHT22;42241;53.510;10.170;2022-10-22T06:27:39;13.20;99.90
56336;DHT22;42241;53.510;10.170;2022-10-22T06:30:05;13.20;99.90
56336;DHT22;42241;53.510;10.170;2022-10-22T06:32:30;13.30;99.90
56336;DHT22;42241;53.510;10.170;2022-10-22T06:34:56;13.30;99.90
56336;DHT22;42241;53.510;10.170;2022-10-22T06:37:21;13.30;99.90
56336;DHT22;42241;53.510;10.170;2022-10-22T06:39:48;13.30;99.90
56336;DHT22;42241;53.510;10.170;2022-10-22T06:42:13;13.20;99.90
56336;DHT22;42241;53.510;10.170;2022-10-22T06:44:39;13.20;99.90
56336;DHT22;42241;53.510;10.170;2022-10-22T06:47:04;13.20;99.90
56336;DHT22;42241;53.510;10.170;2022-10-22T06:49:30;13.20;99.90
56336;DHT22;42241;53.510;10.170;2022-10-22T06:51:55;13.20;99.90
56336;DHT22;42241;53.510;10.170;2022-10-22T06:54:21;13.20;99.90
56336;DHT22;42241;53.510;10.170;2022-10-22T06:56:46;13.20;99.90
56336;DHT22;42241;53.510;10.170;2022-10-22T06:59:12;13.20;99.90
56336;DHT22;42241;53.510;10.170;2022-10-22T07:01:37;13.20;99.90
56336;DHT22;42241;53.510;10.170;2022-10-22T07:04:03;13.20;99.90
56336;DHT22;42241;53.510;10.170;2022-10-22T07:06:29;13.20;99.90
56336;DHT22;42241;53.510;10.170;2022-10-22T07:08:55;13.30;99.90
56336;DHT22;42241;53.510;10.170;2022-10-22T07:11:22;13.30;99.90
56336;DHT22;42241;53.510;10.170;2022-10-22T07:13:48;13.30;99.90
56336;DHT22;42241;53.510;10.170;2022-10-22T07:16:13;13.30;99.90
56336;DHT22;42241;53.510;10.170;2022-10-22T07:18:39;13.30;99.90
56336;DHT22;42241;53.510;10.170;2022-10-22T07:21:05;13.40;99.90
56336;DHT22;42241;53.510;10.170;2022-10-22T07:23:31;13.40;99.90
56336;DHT22;42241;53.510;10.170;2022-10-22T07:25:57;13.40;99.90
56336;DHT22;42241;53.510;10.170;2022-10-22T07:28:23;13.50;99.90
56336;DHT22;42241;53.510;10.170;2022-10-22T07:30:48;13.60;99.90
56336;DHT22;42241;53.510;10.170;2022-10-22T07:33:14;13.60;99.90
56336;DHT22;42241;53.510;10.170;2022-10-22T07:35:40;13.60;99.90
56336;DHT22;42241;53.510;10.170;2022-10-22T07:38:06;13.70;99.90
56336;DHT22;42241;53.510;10.170;2022-10-22T07:40:32;13.70;99.90
56336;DHT22;42241;53.510;10.170;2022-10-22T07:42:58;13.70;99.90
56336;DHT22;42241;53.510;10.170;2022-10-22T07:45:23;13.70;99.90
56336;DHT22;42241;53.510;10.170;2022-10-22T07:47:50;13.80;99.90
56336;DHT22;42241;53.510;10.170;2022-10-22T07:50:16;13.90;99.90
56336;DHT22;42241;53.510;10.170;2022-10-22T07:52:42;14.10;99.90
56336;DHT22;42241;53.510;10.170;2022-10-22T07:55:07;14.20;99.90
56336;DHT22;42241;53.510;10.170;2022-10-22T07:57:33;14.40;99.90
56336;DHT22;42241;53.510;10.170;2022-10-22T07:59:59;14.50;99.90
56336;DHT22;42241;53.510;10.170;2022-10-22T08:02:25;14.60;99.90
56336;DHT22;42241;53.510;10.170;2022-10-22T08:04:51;14.70;99.90
56336;DHT22;42241;53.510;10.170;2022-10-22T08:07:17;14.80;99.90
56336;DHT22;42241;53.510;10.170;2022-10-22T08:09:43;14.80;99.90
56336;DHT22;42241;53.510;10.170;2022-10-22T08:12:08;14.90;99.90
56336;DHT22;42241;53.510;10.170;2022-10-22T08:14:34;15.00;99.90
56336;DHT22;42241;53.510;10.170;2022-10-22T08:16:59;15.10;99.90
56336;DHT22;42241;53.510;10.170;2022-10-22T08:19:25;15.30;99.90
56336;DHT22;42241;53.510;10.170;2022-10-22T08:21:53;15.40;99.90
56336;DHT22;42241;53.510;10.170;2022-10-22T08:24:18;15.50;99.90
56336;DHT22;42241;53.510;10.170;2022-10-22T08:26:44;15.50;99.90
56336;DHT22;42241;53.510;10.170;2022-10-22T08:29:09;15.60;99.90
56336;DHT22;42241;53.510;10.170;2022-10-22T08:31:35;15.70;99.90
56336;DHT22;42241;53.510;10.170;2022-10-22T08:34:00;15.80;99.90
56336;DHT22;42241;53.510;10.170;2022-10-22T08:36:26;15.90;99.90
56336;DHT22;42241;53.510;10.170;2022-10-22T08:38:52;16.00;99.90
56336;DHT22;42241;53.510;10.170;2022-10-22T08:41:18;16.10;99.90
56336;DHT22;42241;53.510;10.170;2022-10-22T08:49:35;16.40;99.90
56336;DHT22;42241;53.510;10.170;2022-10-22T08:52:01;16.80;99.90
56336;DHT22;42241;53.510;10.170;2022-10-22T08:56:59;17.30;99.90
56336;DHT22;42241;53.510;10.170;2022-10-22T08:59:33;17.40;99.90
56336;DHT22;42241;53.510;10.170;2022-10-22T09:02:02;17.50;99.90
56336;DHT22;42241;53.510;10.170;2022-10-22T09:04:34;17.60;99.90
56336;DHT22;42241;53.510;10.170;2022-10-22T09:07:02;17.70;99.90
56336;DHT22;42241;53.510;10.170;2022-10-22T09:09:35;18.50;99.90
56336;DHT22;42241;53.510;10.170;2022-10-22T09:12:05;19.30;99.90
56336;DHT22;42241;53.510;10.170;2022-10-22T09:14:31;20.00;99.90
56336;DHT22;42241;53.510;10.170;2022-10-22T09:17:11;20.60;99.90
56336;DHT22;42241;53.510;10.170;2022-10-22T09:19:40;21.30;99.90
56336;DHT22;42241;53.510;10.170;2022-10-22T09:24:58;21.90;99.90
56336;DHT22;42241;53.510;10.170;2022-10-22T09:27:27;23.10;99.90
56336;DHT22;42241;53.510;10.170;2022-10-22T09:29:52;23.60;99.90
56336;DHT22;42241;53.510;10.170;2022-10-22T09:32:18;23.70;99.90
56336;DHT22;42241;53.510;10.170;2022-10-22T09:34:44;24.50;99.90
56336;DHT22;42241;53.510;10.170;2022-10-22T09:37:10;25.50;99.90
56336;DHT22;42241;53.510;10.170;2022-10-22T09:39:36;27.10;99.90
56336;DHT22;42241;53.510;10.170;2022-10-22T09:42:02;27.70;99.90
56336;DHT22;42241;53.510;10.170;2022-10-22T09:44:28;28.50;99.90
56336;DHT22;42241;53.510;10.170;2022-10-22T09:46:56;28.90;99.90
56336;DHT22;42241;53.510;10.170;2022-10-22T09:49:22;29.20;99.90
56336;DHT22;42241;53.510;10.170;2022-10-22T09:54:15;28.70;99.90
56336;DHT22;42241;53.510;10.170;2022-10-22T09:56:41;28.20;99.90
56336;DHT22;42241;53.510;10.170;2022-10-22T09:59:13;28.20;99.90
56336;DHT22;42241;53.510;10.170;2022-10-22T10:01:39;29.40;99.90
56336;DHT22;42241;53.510;10.170;2022-10-22T10:04:09;30.70;99.90
56336;DHT22;42241;53.510;10.170;2022-10-22T10:06:35;31.30;99.90
56336;DHT22;42241;53.510;10.170;2022-10-22T10:09:13;31.50;97.00
56336;DHT22;42241;53.510;10.170;2022-10-22T10:12:02;31.30;95.60
56336;DHT22;42241;53.510;10.170;2022-10-22T10:14:46;31.20;95.90
56336;DHT22;42241;53.510;10.170;2022-10-22T10:20:08;32.20;92.70
56336;DHT22;42241;53.510;10.170;2022-10-22T10:25:13;33.60;84.20
56336;DHT22;42241;53.510;10.170;2022-10-22T10:28:17;34.20;81.60
56336;DHT22;42241;53.510;10.170;2022-10-22T10:30:34;34.70;75.40
56336;DHT22;42241;53.510;10.170;2022-10-22T10:33:18;35.20;69.80
56336;DHT22;42241;53.510;10.170;2022-10-22T10:38:20;35.40;67.50
56336;DHT22;42241;53.510;10.170;2022-10-22T10:40:54;36.00;64.30
56336;DHT22;42241;53.510;10.170;2022-10-22T10:43:22;36.70;63.40
56336;DHT22;42241;53.510;10.170;2022-10-22T10:45:56;37.70;57.30
56336;DHT22;42241;53.510;10.170;2022-10-22T10:48:29;37.70;56.20
56336;DHT22;42241;53.510;10.170;2022-10-22T10:58:52;38.40;53.50
56336;DHT22;42241;53.510;10.170;2022-10-22T11:06:52;38.70;50.90
56336;DHT22;42241;53.510;10.170;2022-10-22T11:09:27;38.80;48.90
56336;DHT22;42241;53.510;10.170;2022-10-22T11:11:58;37.60;51.00
56336;DHT22;42241;53.510;10.170;2022-10-22T11:14:27;37.30;52.60
56336;DHT22;42241;53.510;10.170;2022-10-22T11:16:55;38.20;49.80
56336;DHT22;42241;53.510;10.170;2022-10-22T11:21:49;38.40;47.60
56336;DHT22;42241;53.510;10.170;2022-10-22T11:27:15;35.80;52.80
56336;DHT22;42241;53.510;10.170;2022-10-22T11:29:45;36.60;53.10
56336;DHT22;42241;53.510;10.170;2022-10-22T11:32:13;38.30;50.10
56336;DHT22;42241;53.510;10.170;2022-10-22T11:34:47;39.20;47.90
56336;DHT22;42241;53.510;10.170;2022-10-22T11:37:14;40.10;45.80
56336;DHT22;42241;53.510;10.170;2022-10-22T11:39:46;39.80;44.40
56336;DHT22;42241;53.510;10.170;2022-10-22T11:42:22;38.40;46.40
56336;DHT22;42241;53.510;10.170;2022-10-22T11:44:58;39.00;46.60
56336;DHT22;42241;53.510;10.170;2022-10-22T11:47:26;39.40;46.60
56336;DHT22;42241;53.510;10.170;2022-10-22T11:52:25;40.60;43.40
56336;DHT22;42241;53.510;10.170;2022-10-22T11:54:53;40.90;44.30
56336;DHT22;42241;53.510;10.170;2022-10-22T11:57:20;41.60;43.10
56336;DHT22;42241;53.510;10.170;2022-10-22T12:05:35;39.20;43.00
56336;DHT22;42241;53.510;10.170;2022-10-22T12:07:54;36.70;47.90
56336;DHT22;42241;53.510;10.170;2022-10-22T12:10:25;34.90;50.10
56336;DHT22;42241;53.510;10.170;2022-10-22T12:12:57;33.90;52.40
56336;DHT22;42241;53.510;10.170;2022-10-22T12:15:26;33.30;55.20
56336;DHT22;42241;53.510;10.170;2022-10-22T12:18:01;32.80;55.50
56336;DHT22;42241;53.510;10.170;2022-10-22T12:20:27;32.10;56.70
56336;DHT22;42241;53.510;10.170;2022-10-22T12:23:00;30.30;61.80
56336;DHT22;42241;53.510;10.170;2022-10-22T12:25:28;28.90;65.80
56336;DHT22;42241;53.510;10.170;2022-10-22T12:27:55;28.70;70.80
56336;DHT22;42241;53.510;10.170;2022-10-22T12:30:26;28.50;72.30
56336;DHT22;42241;53.510;10.170;2022-10-22T12:32:55;27.90;75.70
56336;DHT22;42241;53.510;10.170;2022-10-22T12:35:23;29.00;76.10
56336;DHT22;42241;53.510;10.170;2022-10-22T12:37:49;29.30;72.30
56336;DHT22;42241;53.510;10.170;2022-10-22T12:40:16;28.70;74.10
56336;DHT22;42241;53.510;10.170;2022-10-22T12:42:52;27.40;79.10
56336;DHT22;42241;53.510;10.170;2022-10-22T12:45:19;26.10;87.80
56336;DHT22;42241;53.510;10.170;2022-10-22T12:47:45;24.60;94.60
56336;DHT22;42241;53.510;10.170;2022-10-22T12:50:18;23.50;99.90
56336;DHT22;42241;53.510;10.170;2022-10-22T12:52:45;22.80;99.90
56336;DHT22;42241;53.510;10.170;2022-10-22T12:55:15;22.30;99.90
56336;DHT22;42241;53.510;10.170;2022-10-22T12:57:41;22.10;99.90
56336;DHT22;42241;53.510;10.170;2022-10-22T13:00:18;22.00;99.90
56336;DHT22;42241;53.510;10.170;2022-10-22T13:02:43;21.80;99.90
56336;DHT22;42241;53.510;10.170;2022-10-22T13:08:00;21.80;99.90
56336;DHT22;42241;53.510;10.170;2022-10-22T13:10:31;21.80;99.90
56336;DHT22;42241;53.510;10.170;2022-10-22T13:12:57;21.80;99.90
56336;DHT22;42241;53.510;10.170;2022-10-22T13:17:59;21.50;99.90
56336;DHT22;42241;53.510;10.170;2022-10-22T13:20:25;21.70;99.90
56336;DHT22;42241;53.510;10.170;2022-10-22T13:22:52;21.60;99.90
56336;DHT22;42241;53.510;10.170;2022-10-22T13:25:22;21.60;99.90
56336;DHT22;42241;53.510;10.170;2022-10-22T13:27:54;21.60;99.90
56336;DHT22;42241;53.510;10.170;2022-10-22T13:30:22;21.40;99.90
56336;DHT22;42241;53.510;10.170;2022-10-22T13:32:48;21.30;99.90
56336;DHT22;42241;53.510;10.170;2022-10-22T13:35:14;21.30;99.90
56336;DHT22;42241;53.510;10.170;2022-10-22T13:37:41;21.20;99.90
56336;DHT22;42241;53.510;10.170;2022-10-22T13:40:10;21.00;99.90
56336;DHT22;42241;53.510;10.170;2022-10-22T13:42:35;21.00;99.90
56336;DHT22;42241;53.510;10.170;2022-10-22T13:45:03;20.90;99.90
56336;DHT22;42241;53.510;10.170;2022-10-22T13:47:29;21.00;99.90
56336;DHT22;42241;53.510;10.170;2022-10-22T13:49:56;20.90;99.90
56336;DHT22;42241;53.510;10.170;2022-10-22T13:52:44;20.90;99.90
56336;DHT22;42241;53.510;10.170;2022-10-22T13:55:24;21.00;99.90
56336;DHT22;42241;53.510;10.170;2022-10-22T13:57:51;20.90;99.90
56336;DHT22;42241;53.510;10.170;2022-10-22T14:00:18;21.00;99.90
56336;DHT22;42241;53.510;10.170;2022-10-22T14:02:44;21.00;99.90
56336;DHT22;42241;53.510;10.170;2022-10-22T14:05:10;20.90;99.90
56336;DHT22;42241;53.510;10.170;2022-10-22T14:07:36;20.70;99.90
56336;DHT22;42241;53.510;10.170;2022-10-22T14:10:05;20.40;99.90
56336;DHT22;42241;53.510;10.170;2022-10-22T14:12:30;20.40;99.90
56336;DHT22;42241;53.510;10.170;2022-10-22T14:14:56;20.30;99.90
56336;DHT22;42241;53.510;10.170;2022-10-22T14:17:21;20.20;99.90
56336;DHT22;42241;53.510;10.170;2022-10-22T14:19:47;20.20;99.90
56336;DHT22;42241;53.510;10.170;2022-10-22T14:22:16;20.30;99.90
56336;DHT22;42241;53.510;10.170;2022-10-22T14:24:42;20.40;99.90
56336;DHT22;42241;53.510;10.170;2022-10-22T14:27:12;20.50;99.90
56336;DHT22;42241;53.510;10.170;2022-10-22T14:29:38;20.20;99.90
56336;DHT22;42241;53.510;10.170;2022-10-22T14:32:05;20.10;99.90
56336;DHT22;42241;53.510;10.170;2022-10-22T14:34:31;20.00;99.90
56336;DHT22;42241;53.510;10.170;2022-10-22T14:36:56;19.90;99.90
56336;DHT22;42241;53.510;10.170;2022-10-22T14:39:24;19.80;99.90
56336;DHT22;42241;53.510;10.170;2022-10-22T14:41:50;19.70;99.90
56336;DHT22;42241;53.510;10.170;2022-10-22T14:44:15;19.70;99.90
56336;DHT22;42241;53.510;10.170;2022-10-22T14:46:42;19.60;99.90
56336;DHT22;42241;53.510;10.170;2022-10-22T14:49:08;19.50;99.90
56336;DHT22;42241;53.510;10.170;2022-10-22T14:51:34;19.60;99.90
56336;DHT22;42241;53.510;10.170;2022-10-22T14:53:59;19.60;99.90
56336;DHT22;42241;53.510;10.170;2022-10-22T14:56:24;19.60;99.90
56336;DHT22;42241;53.510;10.170;2022-10-22T14:58:50;19.60;99.90
56336;DHT22;42241;53.510;10.170;2022-10-22T15:01:17;19.60;99.90
56336;DHT22;42241;53.510;10.170;2022-10-22T15:03:43;19.60;99.90
56336;DHT22;42241;53.510;10.170;2022-10-22T15:06:08;19.40;99.90
56336;DHT22;42241;53.510;10.170;2022-10-22T15:08:34;19.40;99.90
56336;DHT22;42241;53.510;10.170;2022-10-22T15:11:03;19.30;99.90
56336;DHT22;42241;53.510;10.170;2022-10-22T15:13:30;19.30;99.90
56336;DHT22;42241;53.510;10.170;2022-10-22T15:15:55;19.10;99.90
56336;DHT22;42241;53.510;10.170;2022-10-22T15:18:21;19.00;99.90
56336;DHT22;42241;53.510;10.170;2022-10-22T15:20:54;19.00;99.90
56336;DHT22;42241;53.510;10.170;2022-10-22T15:23:20;18.80;99.90
56336;DHT22;42241;53.510;10.170;2022-10-22T15:25:45;18.70;99.90
56336;DHT22;42241;53.510;10.170;2022-10-22T15:28:11;18.70;99.90
56336;DHT22;42241;53.510;10.170;2022-10-22T15:30:37;18.70;99.90
56336;DHT22;42241;53.510;10.170;2022-10-22T15:33:02;18.60;99.90
56336;DHT22;42241;53.510;10.170;2022-10-22T15:35:28;18.50;99.90
56336;DHT22;42241;53.510;10.170;2022-10-22T15:37:54;18.50;99.90
56336;DHT22;42241;53.510;10.170;2022-10-22T15:40:19;18.40;99.90
56336;DHT22;42241;53.510;10.170;2022-10-22T15:42:45;18.40;99.90
56336;DHT22;42241;53.510;10.170;2022-10-22T15:45:10;18.50;99.90
56336;DHT22;42241;53.510;10.170;2022-10-22T15:47:36;18.40;99.90
56336;DHT22;42241;53.510;10.170;2022-10-22T15:50:02;18.40;99.90
56336;DHT22;42241;53.510;10.170;2022-10-22T15:52:28;18.30;99.90
56336;DHT22;42241;53.510;10.170;2022-10-22T15:54:55;18.20;99.90
56336;DHT22;42241;53.510;10.170;2022-10-22T15:57:20;18.00;99.90
56336;DHT22;42241;53.510;10.170;2022-10-22T15:59:46;17.90;99.90
56336;DHT22;42241;53.510;10.170;2022-10-22T16:02:14;17.60;99.90
56336;DHT22;42241;53.510;10.170;2022-10-22T16:04:40;17.50;99.90
56336;DHT22;42241;53.510;10.170;2022-10-22T16:07:06;17.40;99.90
56336;DHT22;42241;53.510;10.170;2022-10-22T16:09:31;17.20;99.90
56336;DHT22;42241;53.510;10.170;2022-10-22T16:11:57;17.20;99.90
56336;DHT22;42241;53.510;10.170;2022-10-22T16:14:22;17.20;99.90
56336;DHT22;42241;53.510;10.170;2022-10-22T16:16:49;17.30;99.90
56336;DHT22;42241;53.510;10.170;2022-10-22T16:19:16;17.30;99.90
56336;DHT22;42241;53.510;10.170;2022-10-22T16:21:42;17.30;99.90
56336;DHT22;42241;53.510;10.170;2022-10-22T16:24:08;17.20;99.90
56336;DHT22;42241;53.510;10.170;2022-10-22T16:26:35;17.20;99.90
56336;DHT22;42241;53.510;10.170;2022-10-22T16:29:00;17.20;99.90
56336;DHT22;42241;53.510;10.170;2022-10-22T16:31:26;17.10;99.90
56336;DHT22;42241;53.510;10.170;2022-10-22T16:33:51;17.10;99.90
56336;DHT22;42241;53.510;10.170;2022-10-22T16:36:17;17.10;99.90
56336;DHT22;42241;53.510;10.170;2022-10-22T16:38:44;17.00;99.90
56336;DHT22;42241;53.510;10.170;2022-10-22T16:41:19;17.10;99.90
56336;DHT22;42241;53.510;10.170;2022-10-22T16:43:46;16.90;99.90